Map

Track Data

SID SEASON NUMBER BASIN SUBBASIN NAME ISO_TIME NATURE LAT LON WMO_WIND WMO_PRES WMO_AGENCY TRACK_TYPE DIST2LAND LANDFALL IFLAG USA_AGENCY USA_ATCF_ID USA_LAT USA_LON USA_RECORD USA_STATUS USA_WIND USA_PRES USA_SSHS USA_R34_NE USA_R34_SE USA_R34_SW USA_R34_NW USA_R50_NE USA_R50_SE USA_R50_SW USA_R50_NW USA_R64_NE USA_R64_SE USA_R64_SW USA_R64_NW USA_POCI USA_ROCI USA_RMW USA_EYE TOKYO_LAT TOKYO_LON TOKYO_GRADE TOKYO_WIND TOKYO_PRES TOKYO_R50_DIR TOKYO_R50_LONG TOKYO_R50_SHORT TOKYO_R30_DIR TOKYO_R30_LONG TOKYO_R30_SHORT TOKYO_LAND CMA_LAT CMA_LON CMA_CAT CMA_WIND CMA_PRES HKO_LAT HKO_LON HKO_CAT HKO_WIND HKO_PRES NEWDELHI_LAT NEWDELHI_LON NEWDELHI_GRADE NEWDELHI_WIND NEWDELHI_PRES NEWDELHI_CI NEWDELHI_DP NEWDELHI_POCI REUNION_LAT REUNION_LON REUNION_TYPE REUNION_WIND REUNION_PRES REUNION_TNUM REUNION_CI REUNION_RMW REUNION_R34_NE REUNION_R34_SE REUNION_R34_SW REUNION_R34_NW REUNION_R50_NE REUNION_R50_SE REUNION_R50_SW REUNION_R50_NW REUNION_R64_NE REUNION_R64_SE REUNION_R64_SW REUNION_R64_NW BOM_LAT BOM_LON BOM_TYPE BOM_WIND BOM_PRES BOM_TNUM BOM_CI BOM_RMW BOM_R34_NE BOM_R34_SE BOM_R34_SW BOM_R34_NW BOM_R50_NE BOM_R50_SE BOM_R50_SW BOM_R50_NW BOM_R64_NE BOM_R64_SE BOM_R64_SW BOM_R64_NW BOM_ROCI BOM_POCI BOM_EYE BOM_POS_METHOD BOM_PRES_METHOD NADI_LAT NADI_LON NADI_CAT NADI_WIND NADI_PRES WELLINGTON_LAT WELLINGTON_LON WELLINGTON_WIND WELLINGTON_PRES DS824_LAT DS824_LON DS824_STAGE DS824_WIND DS824_PRES TD9636_LAT TD9636_LON TD9636_STAGE TD9636_WIND TD9636_PRES TD9635_LAT TD9635_LON TD9635_WIND TD9635_PRES TD9635_ROCI NEUMANN_LAT NEUMANN_LON NEUMANN_CLASS NEUMANN_WIND NEUMANN_PRES MLC_LAT MLC_LON MLC_CLASS MLC_WIND MLC_PRES USA_GUST BOM_GUST BOM_GUST_PER REUNION_GUST REUNION_GUST_PER USA_SEAHGT USA_SEARAD_NE USA_SEARAD_SE USA_SEARAD_SW USA_SEARAD_NW STORM_SPEED STORM_DIR
1901328N12088 1901 48 NI BB NOT_NAMED 1901-11-24 00:00:00 TS 12.2000 87.7000 main 762 739 _________O____ -1 12.2000 87.7000 TC 64 5 344
1901328N12088 1901 48 NI BB NOT_NAMED 1901-11-24 03:00:00 TS 12.4583 87.6334 main 732 702 _________PO___ -1 12.5875 87.6000 TC 64 12.2000 87.7000 4 7 346
1901328N12088 1901 48 NI BB NOT_NAMED 1901-11-24 06:00:00 TS 12.8562 87.5383 main 695 659 _________OP___ -1 13.0000 87.5000 TC 64 12.6406 87.5956 4 9 347
1901328N12088 1901 48 NI BB NOT_NAMED 1901-11-24 09:00:00 TS 13.2893 87.4398 main 659 624 _________PP___ -1 13.4500 87.4000 TC 64 13.0750 87.4929 4 9 348
1901328N12088 1901 48 NI BB NOT_NAMED 1901-11-24 12:00:00 TS 13.6984 87.3468 main 618 581 _________OP___ -1 13.9000 87.3000 TC 64 13.4969 87.3937 4 8 347
1901328N12088 1901 48 NI BB NOT_NAMED 1901-11-24 15:00:00 TS 14.1000 87.2462 main 574 538 _________PO___ -1 14.3000 87.1925 TC 64 13.9000 87.3000 4 8 347
1901328N12088 1901 48 NI BB NOT_NAMED 1901-11-24 18:00:00 TS 14.4922 87.1568 main 538 496 _________OP___ -1 14.7000 87.1000 TC 64 14.2844 87.2136 4 8 349
1901328N12088 1901 48 NI BB NOT_NAMED 1901-11-24 21:00:00 TS 14.8938 87.0923 main 496 456 _________PP___ -1 15.1125 87.0499 TC 64 14.6751 87.1348 4 9 352
1901328N12088 1901 48 NI BB NOT_NAMED 1901-11-25 00:00:00 TS 15.3516 87.0318 main 447 408 _________OP___ -1 15.6000 87.0000 TC 64 15.1032 87.0636 4 10 352
1901328N12088 1901 48 NI BB NOT_NAMED 1901-11-25 03:00:00 TS 15.9063 86.9463 main 400 354 _________PO___ -1 16.2125 86.8927 TC 64 15.6000 87.0000 4 12 352
1901328N12088 1901 48 NI BB NOT_NAMED 1901-11-25 06:00:00 TS 16.5556 86.8516 main 346 293 _________OP___ -1 16.9000 86.8000 TC 64 16.2113 86.9032 4 14 354
1901328N12088 1901 48 NI BB NOT_NAMED 1901-11-25 09:00:00 TS 17.2450 86.7908 main 293 235 _________PP___ -1 17.6000 86.7626 TC 64 16.8900 86.8191 4 14 358
1901328N12088 1901 48 NI BB NOT_NAMED 1901-11-25 12:00:00 TS 17.9494 86.7877 main 235 162 _________OP___ -1 18.3000 86.8000 TC 64 17.5987 86.7753 4 14 2
1901328N12088 1901 48 NI BB NOT_NAMED 1901-11-25 15:00:00 TS 18.6325 86.8563 main 165 109 _________PO___ -1 18.9650 86.9125 TC 64 18.3000 86.8000 4 14 9
1901328N12088 1901 48 NI BB NOT_NAMED 1901-11-25 18:00:00 TS 19.2778 87.0076 main 100 68 _________OP___ -1 19.6000 87.1000 TC 64 18.9555 86.9153 4 13 15
1901328N12088 1901 48 NI BB NOT_NAMED 1901-11-25 21:00:00 TS 19.9050 87.2184 main 68 53 _________PP___ -1 20.2150 87.3350 TC 64 19.5949 87.1018 4 13 19
1901328N12088 1901 48 NI BB NOT_NAMED 1901-11-26 00:00:00 TS 20.5059 87.4688 main 56 52 _________OP___ -1 20.8000 87.6000 TC 64 20.2118 87.3375 4 13 22
1901328N12088 1901 48 NI BB NOT_NAMED 1901-11-26 03:00:00 TS 21.0825 87.7214 main 63 15 _________PO___ -1 21.3649 87.8428 TC 55 20.8000 87.6000 4 12 23
1901328N12088 1901 48 NI BB NOT_NAMED 1901-11-26 06:00:00 TS 21.6329 87.9748 main 20 0 _________OP___ -1 21.9000 88.1000 TC 47 21.3658 87.8497 4 12 25
1901328N12088 1901 48 NI BB NOT_NAMED 1901-11-26 09:00:00 TS 22.1587 88.2565 main 0 0 _________PP___ -1 22.4150 88.3926 TC 38 21.9024 88.1204 4 12 28
1901328N12088 1901 48 NI BB NOT_NAMED 1901-11-26 12:00:00 TS 22.6563 88.5530 main 0 0 _________OP___ -1 22.9000 88.7000 TC 30 22.4127 88.4060 4 11 29
1901328N12088 1901 48 NI BB NOT_NAMED 1901-11-26 15:00:00 TS 23.1287 88.8501 main 0 0 _________PO___ -1 23.3574 89.0003 TC 30 22.9000 88.7000 1 10 31
1901328N12088 1901 48 NI BB NOT_NAMED 1901-11-26 18:00:00 TS 23.5530 89.1269 main 0 0 _________OP___ -1 23.8000 89.3000 TC 30 23.3677 88.9970 1 10 31
1901328N12088 1901 48 NI BB NOT_NAMED 1901-11-26 21:00:00 TS 23.9913 89.4174 main 0 0 _________PP___ -1 24.2476 89.5995 TC 30 23.8204 89.2960 1 10 31
1901328N12088 1901 48 NI BB NOT_NAMED 1901-11-27 00:00:00 TS 24.4086 89.6980 main 0 0 _________OP___ -1 24.7000 89.9000 TC 30 24.2629 89.5970 1 8 32
1901328N12088 1901 48 NI BB NOT_NAMED 1901-11-27 03:00:00 NR 24.7000 89.9000 main 0 __________O___ -1 TC 24.7000 89.9000 1 7 32

About IBTrACS Database

This database is a web-friendly format of International Best Track Archive for Climate Stewardship (IBTrACS), a global best track data archive curated by NOAA dating back to 1842.

Updated: 2021-10-08